Elk Horn, Idaho
Current Conditions -  °F | °C
As of 3:50 PM on Monday 24 Nov 2014 (Local Time) from KSUN Reporting Station
Broken Clouds Broken Clouds  
Wind Chill: -2°   Ceiling: 16000
Heat Index:   Visibility: 10mi
Dew Point: -7°   Wind: 7mph
Humidity: 56%   Direction: 120°ESE
Pressure: 30.34"   Gusts: NA
Location:  43.6966°N, 114.35°W
Report Text: KSUN 242250Z 12006KT 10SM BKN160 01/M07 A3034
Loading
Personal Weather Stations






























Interactive Weather Map New forecast layout! Learn more

10-Day Weather Forecast

Advertisements
Track Severe Weather on mobile